createdAt,value
2019-04-22T00:02:28.519Z,43.79
2019-04-22T00:05:11.597Z,44.00
2019-04-22T00:07:56.800Z,44.19
2019-04-22T00:10:32.740Z,44.84
2019-04-22T00:13:27.599Z,45.04
2019-04-22T00:15:32.547Z,45.46
2019-04-22T00:18:14.044Z,45.46
2019-04-22T00:20:48.394Z,45.34
2019-04-22T00:23:12.821Z,44.97
2019-04-22T00:25:49.420Z,44.67
2019-04-22T00:28:22.611Z,44.53
2019-04-22T00:30:54.846Z,44.38
2019-04-22T00:33:26.678Z,44.69
2019-04-22T00:35:55.214Z,45.29
2019-04-22T00:38:31.518Z,45.82
2019-04-22T00:41:05.873Z,46.15
2019-04-22T00:43:45.813Z,46.22
2019-04-22T00:46:15.633Z,46.89
2019-04-22T00:48:48.647Z,46.60
2019-04-22T00:51:22.914Z,46.63
2019-04-22T00:53:48.095Z,46.78
2019-04-22T00:56:20.207Z,46.96
2019-04-22T00:58:50.302Z,46.91
2019-04-22T01:06:25.712Z,47.37
2019-04-22T01:11:44.597Z,48.62
2019-04-22T01:14:09.287Z,48.87
2019-04-22T01:16:42.929Z,48.72
2019-04-22T01:19:16.664Z,49.38
2019-04-22T01:21:46.133Z,49.95
2019-04-22T01:24:16.786Z,50.06
2019-04-22T01:26:50.533Z,50.66
2019-04-22T01:29:21.603Z,51.06
2019-04-22T01:31:41.798Z,50.83
2019-04-22T01:34:32.171Z,50.68
2019-04-22T01:37:09.894Z,51.38
2019-04-22T01:39:45.527Z,51.62
2019-04-22T01:42:16.821Z,51.42
2019-04-22T01:45:06.970Z,51.58
2019-04-22T01:47:26.649Z,51.68
2019-04-22T01:49:55.517Z,51.43
2019-04-22T01:52:31.403Z,51.09
2019-04-22T01:55:07.328Z,50.76
2019-04-22T01:57:38.522Z,50.40
2019-04-22T02:00:00.843Z,50.96
2019-04-22T02:02:42.354Z,50.61
2019-04-22T02:05:19.120Z,49.79
2019-04-22T02:07:42.125Z,49.35
2019-04-22T02:10:26.927Z,49.90
2019-04-22T02:12:53.216Z,50.30
2019-04-22T02:15:24.007Z,50.85
2019-04-22T02:18:04.366Z,50.65
2019-04-22T02:20:29.603Z,51.05
2019-04-22T02:26:02.034Z,50.61
2019-04-22T02:38:59.458Z,48.41
2019-04-22T02:41:26.604Z,48.66
2019-04-22T03:04:12.251Z,49.77
2019-04-22T03:09:20.658Z,49.88
2019-04-22T03:12:00.914Z,49.39
2019-04-22T03:14:37.942Z,49.03
2019-04-22T03:17:11.406Z,49.01
2019-04-22T03:19:43.368Z,49.29
2019-04-22T03:27:02.806Z,50.02
2019-04-22T03:30:22.149Z,49.83
2019-04-22T03:32:59.325Z,50.11
2019-04-22T03:37:48.154Z,50.97
2019-04-22T03:42:52.008Z,52.43
2019-04-22T03:47:54.046Z,53.51
2019-04-22T03:50:24.333Z,53.02
2019-04-22T03:52:56.427Z,52.50
2019-04-22T04:05:41.642Z,52.23
2019-04-22T04:08:22.059Z,51.70
2019-04-22T04:10:39.719Z,51.00
2019-04-22T04:15:42.658Z,51.09
2019-04-22T04:18:29.618Z,51.46
2019-04-22T04:21:09.124Z,51.05
2019-04-22T04:23:30.855Z,50.95
2019-04-22T04:26:00.893Z,50.97
2019-04-22T04:31:05.854Z,51.51
2019-04-22T04:33:43.879Z,51.51
2019-04-22T04:36:11.600Z,52.23
2019-04-22T04:46:30.628Z,52.97
2019-04-22T04:53:58.293Z,52.92
2019-04-22T04:56:33.287Z,52.62
2019-04-22T04:59:05.618Z,53.40
2019-04-22T05:01:30.837Z,52.77
2019-04-22T05:04:04.382Z,52.93
2019-04-22T05:11:49.364Z,53.92
2019-04-22T05:14:14.441Z,53.47
2019-04-22T05:16:51.537Z,53.50
2019-04-22T05:19:15.939Z,54.03
2019-04-22T05:21:50.171Z,54.69
2019-04-22T05:24:38.391Z,55.47
2019-04-22T05:26:52.372Z,55.58
2019-04-22T05:29:23.468Z,55.09
2019-04-22T05:31:57.046Z,54.85
2019-04-22T05:34:26.124Z,54.85
2019-04-22T05:36:53.932Z,54.45
2019-04-22T05:39:21.301Z,54.64
2019-04-22T05:42:03.896Z,53.90
2019-04-22T05:44:37.382Z,53.89
2019-04-22T05:47:08.576Z,53.41
2019-04-22T05:49:35.082Z,53.87
2019-04-22T05:52:12.626Z,53.13
2019-04-22T05:54:38.623Z,51.88
2019-04-22T05:57:17.923Z,52.05
2019-04-22T06:04:52.058Z,50.32
2019-04-22T06:07:22.865Z,49.94
2019-04-22T06:10:03.002Z,50.10
2019-04-22T06:12:29.744Z,47.70
2019-04-22T06:15:03.517Z,42.08
2019-04-22T06:17:38.964Z,36.12
2019-04-22T06:20:13.719Z,34.92
2019-04-22T06:25:20.498Z,32.47
2019-04-22T06:27:52.460Z,30.92
2019-04-22T06:30:23.325Z,28.79
2019-04-22T06:32:53.893Z,28.88
2019-04-22T06:35:31.140Z,30.21
2019-04-22T06:38:19.173Z,31.16
2019-04-22T06:40:31.750Z,31.50
2019-04-22T06:45:35.332Z,30.73
2019-04-22T06:48:12.848Z,32.32
2019-04-22T06:50:43.524Z,33.71
2019-04-22T06:53:17.449Z,34.58
2019-04-22T06:55:45.910Z,37.55
2019-04-22T06:58:36.906Z,38.99
2019-04-22T07:01:09.553Z,38.89
2019-04-22T07:05:57.725Z,35.10
2019-04-22T07:09:00.329Z,34.13
2019-04-22T07:10:56.384Z,34.74
2019-04-22T07:13:43.866Z,34.37
2019-04-22T07:16:05.231Z,32.92
2019-04-22T07:21:06.725Z,33.75
2019-04-22T07:23:51.064Z,36.37
2019-04-22T07:26:16.218Z,35.67
2019-04-22T07:28:50.652Z,35.30
2019-04-22T07:31:20.649Z,35.14
2019-04-22T07:33:51.766Z,35.40
2019-04-22T07:36:45.922Z,34.67
2019-04-22T07:39:01.974Z,34.43
2019-04-22T07:41:34.662Z,35.43
2019-04-22T07:44:13.408Z,36.34
2019-04-22T07:46:33.732Z,36.17
2019-04-22T07:49:10.523Z,37.29
2019-04-22T07:51:36.884Z,38.03
2019-04-22T07:54:18.175Z,38.08
2019-04-22T07:56:48.647Z,39.77
2019-04-22T07:59:18.703Z,39.74
2019-04-22T08:02:04.732Z,40.29
2019-04-22T08:04:35.914Z,38.89
2019-04-22T08:06:57.121Z,36.96
2019-04-22T08:09:30.862Z,36.37
2019-04-22T08:11:57.884Z,36.13
2019-04-22T08:14:34.471Z,37.66
2019-04-22T08:17:21.298Z,37.83
2019-04-22T08:19:42.015Z,39.56
2019-04-22T08:22:11.866Z,41.39
2019-04-22T08:27:15.497Z,41.98
2019-04-22T08:30:02.103Z,43.35
2019-04-22T08:32:21.745Z,42.67
2019-04-22T08:35:02.145Z,43.00
2019-04-22T08:40:03.544Z,43.39
2019-04-22T08:42:45.156Z,43.04
2019-04-22T08:45:10.658Z,43.76
2019-04-22T08:47:36.607Z,44.73
2019-04-22T08:52:41.197Z,43.35
2019-04-22T08:55:19.398Z,44.47
2019-04-22T09:00:20.338Z,45.90
2019-04-22T09:02:54.055Z,46.46
2019-04-22T09:05:43.525Z,46.31
2019-04-22T09:08:05.981Z,46.57
2019-04-22T09:10:37.766Z,46.60
2019-04-22T09:13:05.831Z,46.38
2019-04-22T09:15:43.681Z,46.24
2019-04-22T09:18:14.529Z,46.05
2019-04-22T09:20:49.654Z,44.90
2019-04-22T09:25:51.067Z,44.41
2019-04-22T09:28:24.625Z,44.76
2019-04-22T09:31:01.935Z,44.78
2019-04-22T09:33:32.215Z,43.92
2019-04-22T09:36:09.363Z,44.57
2019-04-22T09:38:39.544Z,44.21
2019-04-22T09:41:10.418Z,44.27
2019-04-22T09:43:47.112Z,43.29
2019-04-22T09:46:14.838Z,43.59
2019-04-22T09:51:12.329Z,42.57
2019-04-22T09:53:54.877Z,41.38
2019-04-22T09:56:23.973Z,42.32
2019-04-22T09:58:55.698Z,41.50
2019-04-22T10:01:50.424Z,40.62
2019-04-22T10:04:00.933Z,39.87
2019-04-22T10:06:33.335Z,39.04
2019-04-22T10:09:26.277Z,38.18
2019-04-22T10:11:47.696Z,37.85
2019-04-22T10:14:16.972Z,38.88
2019-04-22T10:16:50.694Z,38.44
2019-04-22T10:19:18.754Z,37.86
2019-04-22T10:21:50.011Z,37.41
2019-04-22T10:24:19.130Z,38.97
2019-04-22T10:26:55.375Z,39.13
2019-04-22T10:29:24.919Z,40.13
2019-04-22T10:34:16.886Z,39.66
2019-04-22T10:36:44.080Z,38.59
2019-04-22T10:39:12.784Z,38.35
2019-04-22T10:41:44.290Z,37.49
2019-04-22T10:44:15.330Z,38.10
2019-04-22T10:46:46.376Z,38.10
2019-04-22T10:49:18.220Z,38.84
2019-04-22T10:51:48.935Z,38.58
2019-04-22T10:54:19.816Z,37.48
2019-04-22T10:56:50.882Z,38.21
2019-04-22T10:59:22.671Z,38.20
2019-04-22T11:01:54.817Z,37.99
2019-04-22T11:04:27.955Z,38.41
2019-04-22T11:07:03.809Z,37.99
2019-04-22T11:09:52.065Z,38.03
2019-04-22T11:12:17.642Z,37.50
2019-04-22T11:14:45.610Z,37.06
2019-04-22T11:17:17.695Z,38.09
2019-04-22T11:19:49.854Z,37.39
2019-04-22T11:22:24.495Z,36.99
2019-04-22T11:24:53.883Z,36.24
2019-04-22T11:27:25.431Z,37.61
2019-04-22T11:29:57.413Z,37.33
2019-04-22T11:32:28.616Z,36.05
2019-04-22T11:34:59.390Z,36.56
2019-04-22T11:37:30.380Z,36.35
2019-04-22T11:40:11.395Z,37.25
2019-04-22T11:42:34.322Z,37.92
2019-04-22T11:45:05.879Z,38.01
2019-04-22T11:47:37.341Z,37.11
2019-04-22T11:50:10.329Z,37.00
2019-04-22T11:52:44.650Z,37.13
2019-04-22T11:55:16.914Z,37.70
2019-04-22T11:57:47.940Z,36.38
2019-04-22T12:00:22.826Z,36.12
2019-04-22T12:02:54.745Z,36.10
2019-04-22T12:05:26.020Z,36.09
2019-04-22T12:07:57.263Z,36.85
2019-04-22T12:10:36.965Z,36.12
2019-04-22T12:13:02.051Z,35.68
2019-04-22T12:15:35.185Z,35.93
2019-04-22T12:18:07.061Z,34.75
2019-04-22T12:20:39.224Z,35.13
2019-04-22T12:23:11.196Z,35.33
2019-04-22T12:25:52.566Z,36.09
2019-04-22T12:28:17.103Z,35.99
2019-04-22T12:30:47.993Z,36.73
2019-04-22T12:33:19.169Z,36.38
2019-04-22T12:35:50.592Z,36.50
2019-04-22T12:38:22.180Z,36.37
2019-04-22T12:40:57.404Z,36.33
2019-04-22T12:43:29.821Z,35.64
2019-04-22T12:46:02.337Z,35.52
2019-04-22T12:48:33.063Z,35.45
2019-04-22T12:51:04.999Z,36.04
2019-04-22T12:53:36.163Z,36.54
2019-04-22T12:56:07.099Z,37.00
2019-04-22T12:58:38.079Z,37.08
2019-04-22T13:01:08.984Z,37.05
2019-04-22T13:03:40.241Z,35.88
2019-04-22T13:06:12.006Z,35.71
2019-04-22T13:08:43.581Z,36.01
2019-04-22T13:11:17.928Z,35.38
2019-04-22T13:13:47.089Z,34.97
2019-04-22T13:16:17.745Z,34.88
2019-04-22T13:18:55.673Z,34.37
2019-04-22T13:21:20.779Z,35.19
2019-04-22T13:23:52.898Z,35.49
2019-04-22T13:26:25.426Z,35.94
2019-04-22T13:28:59.046Z,36.02
2019-04-22T13:31:33.040Z,36.14
2019-04-22T13:34:04.193Z,36.20
2019-04-22T13:36:36.658Z,36.54
2019-04-22T13:39:09.089Z,36.64
2019-04-22T13:41:48.785Z,37.03
2019-04-22T13:44:12.897Z,36.83
2019-04-22T13:47:04.132Z,36.38
2019-04-22T13:49:54.126Z,35.90
2019-04-22T13:52:29.995Z,35.40
2019-04-22T13:57:14.799Z,34.95
2019-04-22T13:59:36.603Z,35.16
2019-04-22T14:02:12.778Z,35.03
2019-04-22T14:04:46.325Z,35.29
2019-04-22T14:07:17.096Z,35.29
2019-04-22T14:09:48.651Z,35.59
2019-04-22T14:12:21.300Z,35.98
2019-04-22T14:14:52.624Z,35.51
2019-04-22T14:17:24.958Z,34.80
2019-04-22T14:19:56.871Z,34.88
2019-04-22T14:22:28.325Z,35.14
2019-04-22T14:24:59.004Z,35.76
2019-04-22T14:27:41.905Z,36.38
2019-04-22T14:30:03.057Z,36.28
2019-04-22T14:32:36.539Z,35.51
2019-04-22T14:35:11.222Z,35.96
2019-04-22T14:37:42.450Z,35.98
2019-04-22T14:40:16.071Z,36.77
2019-04-22T14:43:10.171Z,36.23
2019-04-22T14:45:52.166Z,36.47
2019-04-22T14:48:24.773Z,36.24
2019-04-22T14:50:45.194Z,36.68
2019-04-22T14:53:21.722Z,36.25
2019-04-22T14:55:34.415Z,36.57
2019-04-22T14:58:04.765Z,36.75
2019-04-22T15:00:35.870Z,36.72
2019-04-22T15:03:07.926Z,36.43
2019-04-22T15:05:40.055Z,36.90
2019-04-22T15:08:11.020Z,36.75
2019-04-22T15:10:43.972Z,36.76
2019-04-22T15:13:15.573Z,36.79
2019-04-22T15:15:52.911Z,36.26
2019-04-22T15:18:26.028Z,36.28
2019-04-22T15:21:02.624Z,36.06
2019-04-22T15:23:33.270Z,36.12
2019-04-22T15:26:06.530Z,35.95
2019-04-22T15:28:37.551Z,36.05
2019-04-22T15:31:09.144Z,35.66
2019-04-22T15:33:48.013Z,35.70
2019-04-22T15:36:15.209Z,35.91
2019-04-22T15:38:47.273Z,36.20
2019-04-22T15:41:18.771Z,35.82
2019-04-22T15:43:49.866Z,35.63
2019-04-22T15:46:20.450Z,35.48
2019-04-22T15:48:51.831Z,35.58
2019-04-22T15:51:22.697Z,36.18
2019-04-22T15:53:53.940Z,36.56
2019-04-22T15:56:26.381Z,36.94
2019-04-22T15:58:57.769Z,37.13
2019-04-22T16:01:33.672Z,37.40
2019-04-22T16:04:00.832Z,37.60
2019-04-22T16:06:31.951Z,37.67
2019-04-22T16:09:02.816Z,37.21
2019-04-22T16:11:36.109Z,37.14
2019-04-22T16:14:06.881Z,36.81
2019-04-22T16:16:39.035Z,36.95
2019-04-22T16:19:12.087Z,36.69
2019-04-22T16:21:53.673Z,36.79
2019-04-22T16:24:20.228Z,36.57
2019-04-22T16:26:53.873Z,36.76
2019-04-22T16:29:25.178Z,36.47
2019-04-22T16:31:55.796Z,36.43
2019-04-22T16:34:27.170Z,36.99
2019-04-22T16:36:58.619Z,37.31
2019-04-22T16:39:29.349Z,37.59
2019-04-22T16:42:00.609Z,37.40
2019-04-22T16:44:32.424Z,37.12
2019-04-22T16:47:03.677Z,37.53
2019-04-22T16:49:34.446Z,37.71
2019-04-22T16:52:05.766Z,37.92
2019-04-22T16:54:36.902Z,38.06
2019-04-22T16:57:08.151Z,38.27
2019-04-22T16:59:38.741Z,38.43
2019-04-22T17:02:24.677Z,38.81
2019-04-22T17:05:00.109Z,38.61
2019-04-22T17:07:31.917Z,38.98
2019-04-22T17:10:08.224Z,38.16
2019-04-22T17:12:48.767Z,38.22
2019-04-22T17:15:14.316Z,37.75
2019-04-22T17:17:45.292Z,37.73
2019-04-22T17:20:17.555Z,37.99
2019-04-22T17:22:49.403Z,38.14
2019-04-22T17:25:22.496Z,38.30
2019-04-22T17:27:53.126Z,38.48
2019-04-22T17:30:26.423Z,38.47
2019-04-22T17:32:58.732Z,38.96
2019-04-22T17:35:30.100Z,39.21
2019-04-22T17:38:14.263Z,39.31
2019-04-22T17:40:51.245Z,39.51
2019-04-22T17:43:37.782Z,39.56
2019-04-22T17:46:00.173Z,39.64
2019-04-22T17:48:57.418Z,39.76
2019-04-22T17:51:49.965Z,39.74
2019-04-22T17:54:02.865Z,39.92
2019-04-22T17:56:39.146Z,40.01
2019-04-22T17:59:10.408Z,40.08
2019-04-22T18:01:39.842Z,40.14
2019-04-22T18:03:57.851Z,40.27
2019-04-22T18:06:56.574Z,40.48
2019-04-22T18:09:19.493Z,40.65
2019-04-22T18:11:54.090Z,40.63
2019-04-22T18:17:03.638Z,40.91
2019-04-22T18:19:26.214Z,41.17
2019-04-22T18:21:57.191Z,40.95
2019-04-22T18:24:24.276Z,41.10
2019-04-22T18:27:18.938Z,41.07
2019-04-22T18:29:41.799Z,41.21
2019-04-22T18:32:10.039Z,41.27
2019-04-22T18:34:44.396Z,41.15
2019-04-22T18:37:16.601Z,41.22
2019-04-22T18:39:56.955Z,41.27
2019-04-22T18:42:23.870Z,41.52
2019-04-22T18:45:19.909Z,41.57
2019-04-22T18:47:32.239Z,41.70
2019-04-22T18:50:03.495Z,41.82
2019-04-22T18:52:49.155Z,41.95
2019-04-22T18:55:33.262Z,42.06
2019-04-22T18:58:13.312Z,42.19
2019-04-22T19:00:36.221Z,42.40
2019-04-22T19:03:16.477Z,42.61
2019-04-22T19:06:03.639Z,42.70
2019-04-22T19:08:36.685Z,42.86
2019-04-22T19:14:01.107Z,43.02
2019-04-22T19:16:25.798Z,43.29
2019-04-22T19:19:05.854Z,43.47
2019-04-22T19:21:19.776Z,43.25
2019-04-22T19:23:53.976Z,43.26
2019-04-22T19:26:38.423Z,43.34
2019-04-22T19:29:00.379Z,43.60
2019-04-22T19:31:34.559Z,43.68
2019-04-22T19:34:09.355Z,43.64
2019-04-22T19:36:46.926Z,43.63
2019-04-22T19:39:13.204Z,43.63
2019-04-22T19:41:53.645Z,43.73
2019-04-22T19:44:27.531Z,43.75
2019-04-22T19:47:14.455Z,43.84
2019-04-22T19:52:06.087Z,43.77
2019-04-22T19:54:38.980Z,43.92
2019-04-22T19:57:00.183Z,43.81
2019-04-22T19:59:45.450Z,44.12
2019-04-22T20:02:41.124Z,44.18
2019-04-22T20:05:37.443Z,44.21
2019-04-22T20:08:07.317Z,44.26
2019-04-22T20:10:39.889Z,44.43
2019-04-22T20:13:11.088Z,44.50
2019-04-22T20:15:34.540Z,44.65
2019-04-22T20:18:35.658Z,44.83
2019-04-22T20:20:51.250Z,44.94
2019-04-22T20:23:15.104Z,44.92
2019-04-22T20:25:44.711Z,45.13
2019-04-22T20:28:24.138Z,45.04
2019-04-22T20:30:55.453Z,45.06
2019-04-22T20:33:33.249Z,44.93
2019-04-22T20:36:03.819Z,44.77
2019-04-22T20:38:30.997Z,45.04
2019-04-22T20:41:02.417Z,44.97
2019-04-22T20:43:49.574Z,45.13
2019-04-22T20:46:15.180Z,45.11
2019-04-22T20:48:50.289Z,45.01
2019-04-22T20:51:24.332Z,45.03
2019-04-22T20:53:56.516Z,45.25
2019-04-22T20:56:18.782Z,45.34
2019-04-22T20:58:56.023Z,45.46
2019-04-22T21:01:28.401Z,45.34
2019-04-22T21:03:47.633Z,45.61
2019-04-22T21:06:33.360Z,45.55
2019-04-22T21:09:08.894Z,45.58
2019-04-22T21:11:34.099Z,45.68
2019-04-22T21:16:44.471Z,45.54
2019-04-22T21:19:22.678Z,45.32
2019-04-22T21:21:49.978Z,45.38
2019-04-22T21:24:21.446Z,45.37
2019-04-22T21:26:51.370Z,45.18
2019-04-22T21:29:20.784Z,45.04
2019-04-22T21:31:57.855Z,44.98
2019-04-22T21:34:23.328Z,45.12
2019-04-22T21:37:12.236Z,45.01
2019-04-22T21:39:30.238Z,45.08
2019-04-22T21:42:09.384Z,44.98
2019-04-22T21:44:38.345Z,44.80
2019-04-22T21:47:14.526Z,44.95
2019-04-22T21:49:56.697Z,45.08
2019-04-22T21:52:17.068Z,45.02
2019-04-22T21:54:51.757Z,44.85
2019-04-22T21:57:27.779Z,44.68
2019-04-22T21:59:57.948Z,44.64
2019-04-22T22:02:43.870Z,44.53
2019-04-22T22:05:00.129Z,44.30
2019-04-22T22:07:24.636Z,44.47
2019-04-22T22:10:12.388Z,44.74
2019-04-22T22:12:44.109Z,44.35
2019-04-22T22:15:17.243Z,44.47
2019-04-22T22:17:48.692Z,44.42
2019-04-22T22:20:14.689Z,44.16
2019-04-22T22:23:03.704Z,44.13
2019-04-22T22:25:23.643Z,44.13
2019-04-22T22:27:59.865Z,44.28
2019-04-22T22:30:48.487Z,44.16
2019-04-22T22:33:05.732Z,44.20
2019-04-22T22:35:35.940Z,44.27
2019-04-22T22:38:08.785Z,44.63
2019-04-22T22:40:26.322Z,44.72
2019-04-22T22:42:55.868Z,44.46
2019-04-22T22:45:34.839Z,44.59
2019-04-22T22:50:50.835Z,44.75
2019-04-22T22:55:59.305Z,44.54
2019-04-22T22:58:27.771Z,44.97
2019-04-22T23:01:00.887Z,44.75
2019-04-22T23:06:17.029Z,44.53
2019-04-22T23:08:38.619Z,45.10
2019-04-22T23:11:11.806Z,44.88
2019-04-22T23:13:44.246Z,44.95
2019-04-22T23:16:08.889Z,44.92
2019-04-22T23:18:30.028Z,45.16
2019-04-22T23:21:01.439Z,44.73
2019-04-22T23:23:52.985Z,45.42
2019-04-22T23:26:40.455Z,45.24
2019-04-22T23:29:07.215Z,45.00
2019-04-22T23:31:37.194Z,44.80
2019-04-22T23:34:26.596Z,44.77
2019-04-22T23:37:18.756Z,44.90
2019-04-22T23:40:02.190Z,45.24
2019-04-22T23:42:28.503Z,44.97
2019-04-22T23:45:02.113Z,45.06
2019-04-22T23:47:26.401Z,44.59
2019-04-22T23:50:06.033Z,44.81
2019-04-22T23:52:43.588Z,45.03
2019-04-22T23:55:17.852Z,44.93
2019-04-22T23:57:46.930Z,45.00
